sensor_id;sensor_type;location;lat;lon;timestamp;temperature;humidity
30047;DHT22;16878;52.542;13.426;2022-08-04T00:01:23;25.00;79.40
30047;DHT22;16878;52.542;13.426;2022-08-04T00:07:15;25.00;79.60
30047;DHT22;16878;52.542;13.426;2022-08-04T00:09:29;25.00;79.90
30047;DHT22;16878;52.542;13.426;2022-08-04T00:12:00;24.90;80.10
30047;DHT22;16878;52.542;13.426;2022-08-04T00:14:29;24.90;80.30
30047;DHT22;16878;52.542;13.426;2022-08-04T00:16:58;24.90;80.30
30047;DHT22;16878;52.542;13.426;2022-08-04T00:19:26;24.90;80.30
30047;DHT22;16878;52.542;13.426;2022-08-04T00:22:04;24.90;80.30
30047;DHT22;16878;52.542;13.426;2022-08-04T00:24:33;24.90;80.30
30047;DHT22;16878;52.542;13.426;2022-08-04T00:26:59;24.90;80.40
30047;DHT22;16878;52.542;13.426;2022-08-04T00:29:26;24.90;80.30
30047;DHT22;16878;52.542;13.426;2022-08-04T00:31:54;25.00;79.90
30047;DHT22;16878;52.542;13.426;2022-08-04T00:34:22;25.00;79.60
30047;DHT22;16878;52.542;13.426;2022-08-04T00:36:49;24.90;79.80
30047;DHT22;16878;52.542;13.426;2022-08-04T00:39:15;24.90;79.10
30047;DHT22;16878;52.542;13.426;2022-08-04T00:42:20;24.90;79.60
30047;DHT22;16878;52.542;13.426;2022-08-04T00:51:25;24.70;79.90
30047;DHT22;16878;52.542;13.426;2022-08-04T00:53:34;24.70;80.10
30047;DHT22;16878;52.542;13.426;2022-08-04T00:59:50;24.60;80.30
30047;DHT22;16878;52.542;13.426;2022-08-04T01:01:59;24.60;80.60
30047;DHT22;16878;52.542;13.426;2022-08-04T01:07:30;24.60;81.00
30047;DHT22;16878;52.542;13.426;2022-08-04T01:10:05;24.50;81.00
30047;DHT22;16878;52.542;13.426;2022-08-04T01:12:52;24.50;81.40
30047;DHT22;16878;52.542;13.426;2022-08-04T01:15:48;24.50;81.80
30047;DHT22;16878;52.542;13.426;2022-08-04T01:19:04;24.40;82.10
30047;DHT22;16878;52.542;13.426;2022-08-04T01:24:29;24.40;82.30
30047;DHT22;16878;52.542;13.426;2022-08-04T01:29:39;24.30;82.50
30047;DHT22;16878;52.542;13.426;2022-08-04T01:35:27;24.30;82.80
30047;DHT22;16878;52.542;13.426;2022-08-04T01:38:00;24.30;83.00
30047;DHT22;16878;52.542;13.426;2022-08-04T01:40:27;24.30;83.10
30047;DHT22;16878;52.542;13.426;2022-08-04T01:42:54;24.30;83.70
30047;DHT22;16878;52.542;13.426;2022-08-04T01:45:23;24.20;84.30
30047;DHT22;16878;52.542;13.426;2022-08-04T01:47:54;24.10;85.00
30047;DHT22;16878;52.542;13.426;2022-08-04T01:50:21;24.00;85.70
30047;DHT22;16878;52.542;13.426;2022-08-04T01:52:47;23.90;85.20
30047;DHT22;16878;52.542;13.426;2022-08-04T01:55:15;23.90;85.10
30047;DHT22;16878;52.542;13.426;2022-08-04T01:57:45;23.90;85.40
30047;DHT22;16878;52.542;13.426;2022-08-04T02:00:19;23.90;85.20
30047;DHT22;16878;52.542;13.426;2022-08-04T02:02:46;23.90;85.70
30047;DHT22;16878;52.542;13.426;2022-08-04T02:05:15;23.80;85.90
30047;DHT22;16878;52.542;13.426;2022-08-04T02:13:32;23.70;85.90
30047;DHT22;16878;52.542;13.426;2022-08-04T02:21:01;23.70;86.70
30047;DHT22;16878;52.542;13.426;2022-08-04T02:23:34;23.60;87.10
30047;DHT22;16878;52.542;13.426;2022-08-04T02:26:19;23.60;87.50
30047;DHT22;16878;52.542;13.426;2022-08-04T02:29:16;23.60;87.60
30047;DHT22;16878;52.542;13.426;2022-08-04T02:36:55;23.60;88.40
30047;DHT22;16878;52.542;13.426;2022-08-04T02:39:22;23.50;88.80
30047;DHT22;16878;52.542;13.426;2022-08-04T02:41:49;23.50;89.10
30047;DHT22;16878;52.542;13.426;2022-08-04T02:44:20;23.50;89.10
30047;DHT22;16878;52.542;13.426;2022-08-04T02:46:51;23.50;89.60
30047;DHT22;16878;52.542;13.426;2022-08-04T02:49:18;23.40;89.90
30047;DHT22;16878;52.542;13.426;2022-08-04T02:51:51;23.40;89.80
30047;DHT22;16878;52.542;13.426;2022-08-04T02:54:19;23.30;89.60
30047;DHT22;16878;52.542;13.426;2022-08-04T02:56:49;23.40;89.00
30047;DHT22;16878;52.542;13.426;2022-08-04T02:59:17;23.40;88.60
30047;DHT22;16878;52.542;13.426;2022-08-04T03:01:44;23.40;89.10
30047;DHT22;16878;52.542;13.426;2022-08-04T03:12:38;23.20;88.20
30047;DHT22;16878;52.542;13.426;2022-08-04T03:16:19;23.10;88.70
30047;DHT22;16878;52.542;13.426;2022-08-04T03:38:38;23.00;88.80
30047;DHT22;16878;52.542;13.426;2022-08-04T03:59:41;22.90;90.20
30047;DHT22;16878;52.542;13.426;2022-08-04T04:05:17;22.90;90.10
30047;DHT22;16878;52.542;13.426;2022-08-04T04:18:36;23.00;89.90
30047;DHT22;16878;52.542;13.426;2022-08-04T04:39:51;24.10;84.30
30047;DHT22;16878;52.542;13.426;2022-08-04T04:47:57;25.30;79.90
30047;DHT22;16878;52.542;13.426;2022-08-04T04:50:37;25.70;78.60
30047;DHT22;16878;52.542;13.426;2022-08-04T04:56:40;26.10;77.10
30047;DHT22;16878;52.542;13.426;2022-08-04T04:59:12;26.40;76.20
30047;DHT22;16878;52.542;13.426;2022-08-04T05:15:47;27.80;72.10
30047;DHT22;16878;52.542;13.426;2022-08-04T05:18:21;27.80;72.00
30047;DHT22;16878;52.542;13.426;2022-08-04T05:21:02;28.00;71.60
30047;DHT22;16878;52.542;13.426;2022-08-04T05:23:32;28.20;71.00
30047;DHT22;16878;52.542;13.426;2022-08-04T05:26:08;28.40;70.70
30047;DHT22;16878;52.542;13.426;2022-08-04T05:28:44;28.40;71.00
30047;DHT22;16878;52.542;13.426;2022-08-04T05:31:22;28.30;70.00
30047;DHT22;16878;52.542;13.426;2022-08-04T05:33:59;28.40;70.00
30047;DHT22;16878;52.542;13.426;2022-08-04T05:36:35;28.60;69.70
30047;DHT22;16878;52.542;13.426;2022-08-04T05:39:02;28.60;69.40
30047;DHT22;16878;52.542;13.426;2022-08-04T05:41:29;28.60;69.20
30047;DHT22;16878;52.542;13.426;2022-08-04T05:43:58;28.50;69.50
30047;DHT22;16878;52.542;13.426;2022-08-04T05:46:26;28.60;69.30
30047;DHT22;16878;52.542;13.426;2022-08-04T05:48:52;28.60;69.20
30047;DHT22;16878;52.542;13.426;2022-08-04T05:51:18;28.50;69.40
30047;DHT22;16878;52.542;13.426;2022-08-04T05:53:45;28.70;69.00
30047;DHT22;16878;52.542;13.426;2022-08-04T05:56:13;28.60;69.00
30047;DHT22;16878;52.542;13.426;2022-08-04T05:58:39;28.70;69.00
30047;DHT22;16878;52.542;13.426;2022-08-04T06:01:08;28.80;69.00
30047;DHT22;16878;52.542;13.426;2022-08-04T06:03:35;28.90;69.00
30047;DHT22;16878;52.542;13.426;2022-08-04T06:06:02;29.00;68.50
30047;DHT22;16878;52.542;13.426;2022-08-04T06:08:29;29.10;68.30
30047;DHT22;16878;52.542;13.426;2022-08-04T06:10:58;29.40;68.00
30047;DHT22;16878;52.542;13.426;2022-08-04T06:13:32;29.70;67.60
30047;DHT22;16878;52.542;13.426;2022-08-04T06:15:59;30.10;66.30
30047;DHT22;16878;52.542;13.426;2022-08-04T06:18:28;30.40;67.30
30047;DHT22;16878;52.542;13.426;2022-08-04T06:23:22;34.60;61.60
30047;DHT22;16878;52.542;13.426;2022-08-04T06:25:54;37.00;59.80
30047;DHT22;16878;52.542;13.426;2022-08-04T06:28:22;39.50;56.00
30047;DHT22;16878;52.542;13.426;2022-08-04T06:30:53;41.30;50.40
30047;DHT22;16878;52.542;13.426;2022-08-04T06:33:20;42.90;48.60
30047;DHT22;16878;52.542;13.426;2022-08-04T06:35:58;43.60;46.00
30047;DHT22;16878;52.542;13.426;2022-08-04T06:38:27;43.60;47.10
30047;DHT22;16878;52.542;13.426;2022-08-04T06:40:55;44.00;46.60
30047;DHT22;16878;52.542;13.426;2022-08-04T06:43:25;44.40;45.30
30047;DHT22;16878;52.542;13.426;2022-08-04T06:45:53;45.60;43.10
30047;DHT22;16878;52.542;13.426;2022-08-04T06:48:20;46.10;42.50
30047;DHT22;16878;52.542;13.426;2022-08-04T06:50:48;46.20;42.70
30047;DHT22;16878;52.542;13.426;2022-08-04T06:53:14;46.60;41.20
30047;DHT22;16878;52.542;13.426;2022-08-04T06:55:43;46.70;41.50
30047;DHT22;16878;52.542;13.426;2022-08-04T06:58:09;45.50;42.80
30047;DHT22;16878;52.542;13.426;2022-08-04T07:00:37;46.80;40.70
30047;DHT22;16878;52.542;13.426;2022-08-04T07:03:03;47.10;40.50
30047;DHT22;16878;52.542;13.426;2022-08-04T07:05:30;48.20;39.60
30047;DHT22;16878;52.542;13.426;2022-08-04T07:10:52;41.90;41.40
30047;DHT22;16878;52.542;13.426;2022-08-04T07:13:19;37.80;45.60
30047;DHT22;16878;52.542;13.426;2022-08-04T07:15:46;35.60;46.90
30047;DHT22;16878;52.542;13.426;2022-08-04T07:18:13;33.70;52.80
30047;DHT22;16878;52.542;13.426;2022-08-04T07:20:45;32.00;56.90
30047;DHT22;16878;52.542;13.426;2022-08-04T07:23:12;31.10;56.20
30047;DHT22;16878;52.542;13.426;2022-08-04T07:25:42;30.50;57.80
30047;DHT22;16878;52.542;13.426;2022-08-04T07:28:08;30.10;59.00
30047;DHT22;16878;52.542;13.426;2022-08-04T07:30:34;29.70;59.80
30047;DHT22;16878;52.542;13.426;2022-08-04T07:33:01;29.60;60.20
30047;DHT22;16878;52.542;13.426;2022-08-04T07:35:28;29.40;59.80
30047;DHT22;16878;52.542;13.426;2022-08-04T07:37:53;29.30;60.50
30047;DHT22;16878;52.542;13.426;2022-08-04T07:40:19;29.10;64.40
30047;DHT22;16878;52.542;13.426;2022-08-04T07:42:45;28.90;63.30
30047;DHT22;16878;52.542;13.426;2022-08-04T07:45:11;29.00;61.60
30047;DHT22;16878;52.542;13.426;2022-08-04T07:47:37;28.90;62.10
30047;DHT22;16878;52.542;13.426;2022-08-04T07:50:08;28.90;61.80
30047;DHT22;16878;52.542;13.426;2022-08-04T07:52:33;29.00;61.60
30047;DHT22;16878;52.542;13.426;2022-08-04T07:55:01;29.00;61.40
30047;DHT22;16878;52.542;13.426;2022-08-04T07:57:27;29.10;61.30
30047;DHT22;16878;52.542;13.426;2022-08-04T07:59:53;29.10;61.30
30047;DHT22;16878;52.542;13.426;2022-08-04T08:02:19;29.00;61.20
30047;DHT22;16878;52.542;13.426;2022-08-04T08:04:47;29.00;61.70
30047;DHT22;16878;52.542;13.426;2022-08-04T08:07:13;29.00;62.10
30047;DHT22;16878;52.542;13.426;2022-08-04T08:09:38;29.00;62.30
30047;DHT22;16878;52.542;13.426;2022-08-04T08:12:06;29.00;62.40
30047;DHT22;16878;52.542;13.426;2022-08-04T08:14:32;29.00;62.10
30047;DHT22;16878;52.542;13.426;2022-08-04T08:16:59;29.10;61.90
30047;DHT22;16878;52.542;13.426;2022-08-04T08:19:27;29.10;61.50
30047;DHT22;16878;52.542;13.426;2022-08-04T08:21:53;29.10;61.70
30047;DHT22;16878;52.542;13.426;2022-08-04T08:24:19;29.10;61.90
30047;DHT22;16878;52.542;13.426;2022-08-04T08:26:45;29.20;61.70
30047;DHT22;16878;52.542;13.426;2022-08-04T08:29:11;29.30;61.60
30047;DHT22;16878;52.542;13.426;2022-08-04T08:31:37;29.20;61.60
30047;DHT22;16878;52.542;13.426;2022-08-04T08:34:03;29.30;61.60
30047;DHT22;16878;52.542;13.426;2022-08-04T08:36:36;29.30;61.50
30047;DHT22;16878;52.542;13.426;2022-08-04T08:39:38;29.40;60.50
30047;DHT22;16878;52.542;13.426;2022-08-04T08:56:19;29.80;60.30
30047;DHT22;16878;52.542;13.426;2022-08-04T08:59:14;29.80;60.40
30047;DHT22;16878;52.542;13.426;2022-08-04T09:02:01;29.90;60.10
30047;DHT22;16878;52.542;13.426;2022-08-04T09:05:23;30.10;60.30
30047;DHT22;16878;52.542;13.426;2022-08-04T09:07:56;30.20;60.20
30047;DHT22;16878;52.542;13.426;2022-08-04T09:10:29;30.30;59.20
30047;DHT22;16878;52.542;13.426;2022-08-04T09:13:05;30.20;59.60
30047;DHT22;16878;52.542;13.426;2022-08-04T09:15:53;30.30;58.70
30047;DHT22;16878;52.542;13.426;2022-08-04T09:18:35;30.30;59.00
30047;DHT22;16878;52.542;13.426;2022-08-04T09:21:40;30.30;59.10
30047;DHT22;16878;52.542;13.426;2022-08-04T09:24:16;30.20;59.40
30047;DHT22;16878;52.542;13.426;2022-08-04T09:26:55;30.20;59.10
30047;DHT22;16878;52.542;13.426;2022-08-04T09:29:42;30.20;59.20
30047;DHT22;16878;52.542;13.426;2022-08-04T09:32:31;30.60;57.60
30047;DHT22;16878;52.542;13.426;2022-08-04T09:35:18;30.70;57.60
30047;DHT22;16878;52.542;13.426;2022-08-04T09:41:33;30.70;57.60
30047;DHT22;16878;52.542;13.426;2022-08-04T09:46:58;30.90;57.90
30047;DHT22;16878;52.542;13.426;2022-08-04T09:49:39;30.90;57.50
30047;DHT22;16878;52.542;13.426;2022-08-04T09:52:25;30.90;57.20
30047;DHT22;16878;52.542;13.426;2022-08-04T09:55:04;31.10;57.40
30047;DHT22;16878;52.542;13.426;2022-08-04T09:57:56;31.10;57.50
30047;DHT22;16878;52.542;13.426;2022-08-04T10:00:33;31.10;57.30
30047;DHT22;16878;52.542;13.426;2022-08-04T10:03:01;31.10;57.20
30047;DHT22;16878;52.542;13.426;2022-08-04T10:05:46;31.20;57.10
30047;DHT22;16878;52.542;13.426;2022-08-04T10:11:08;31.20;55.70
30047;DHT22;16878;52.542;13.426;2022-08-04T10:14:04;31.30;56.00
30047;DHT22;16878;52.542;13.426;2022-08-04T10:19:29;31.50;56.20
30047;DHT22;16878;52.542;13.426;2022-08-04T10:22:25;31.40;55.90
30047;DHT22;16878;52.542;13.426;2022-08-04T10:25:11;31.40;56.00
30047;DHT22;16878;52.542;13.426;2022-08-04T10:27:49;31.30;55.90
30047;DHT22;16878;52.542;13.426;2022-08-04T10:30:16;31.40;56.20
30047;DHT22;16878;52.542;13.426;2022-08-04T10:32:54;31.40;56.10
30047;DHT22;16878;52.542;13.426;2022-08-04T10:35:25;31.40;56.10
30047;DHT22;16878;52.542;13.426;2022-08-04T10:41:10;31.40;55.10
30047;DHT22;16878;52.542;13.426;2022-08-04T10:46:16;31.50;54.70
30047;DHT22;16878;52.542;13.426;2022-08-04T10:55:02;31.80;54.70
30047;DHT22;16878;52.542;13.426;2022-08-04T10:57:06;31.90;53.70
30047;DHT22;16878;52.542;13.426;2022-08-04T10:59:48;31.90;54.80
30047;DHT22;16878;52.542;13.426;2022-08-04T11:02:29;31.90;54.20
30047;DHT22;16878;52.542;13.426;2022-08-04T11:05:23;31.90;53.80
30047;DHT22;16878;52.542;13.426;2022-08-04T11:08:00;31.90;53.80
30047;DHT22;16878;52.542;13.426;2022-08-04T11:10:32;32.00;53.40
30047;DHT22;16878;52.542;13.426;2022-08-04T11:13:04;32.10;53.30
30047;DHT22;16878;52.542;13.426;2022-08-04T11:15:38;32.10;53.20
30047;DHT22;16878;52.542;13.426;2022-08-04T11:18:12;32.10;53.40
30047;DHT22;16878;52.542;13.426;2022-08-04T11:20:54;32.20;53.40
30047;DHT22;16878;52.542;13.426;2022-08-04T11:23:25;32.40;53.10
30047;DHT22;16878;52.542;13.426;2022-08-04T11:26:20;32.50;52.90
30047;DHT22;16878;52.542;13.426;2022-08-04T11:31:25;32.40;52.70
30047;DHT22;16878;52.542;13.426;2022-08-04T11:34:03;32.50;52.70
30047;DHT22;16878;52.542;13.426;2022-08-04T11:36:40;32.50;53.20
30047;DHT22;16878;52.542;13.426;2022-08-04T11:39:11;32.40;52.90
30047;DHT22;16878;52.542;13.426;2022-08-04T11:44:24;32.60;52.10
30047;DHT22;16878;52.542;13.426;2022-08-04T11:46:56;32.90;51.30
30047;DHT22;16878;52.542;13.426;2022-08-04T11:49:47;33.00;51.50
30047;DHT22;16878;52.542;13.426;2022-08-04T11:52:16;33.00;51.80
30047;DHT22;16878;52.542;13.426;2022-08-04T11:54:44;32.80;51.80
30047;DHT22;16878;52.542;13.426;2022-08-04T11:57:11;32.80;52.00
30047;DHT22;16878;52.542;13.426;2022-08-04T11:59:38;33.00;52.00
30047;DHT22;16878;52.542;13.426;2022-08-04T12:04:59;32.90;51.10
30047;DHT22;16878;52.542;13.426;2022-08-04T12:16:41;33.20;50.20
30047;DHT22;16878;52.542;13.426;2022-08-04T12:19:00;33.50;49.70
30047;DHT22;16878;52.542;13.426;2022-08-04T12:21:44;33.60;48.90
30047;DHT22;16878;52.542;13.426;2022-08-04T12:24:21;33.70;48.80
30047;DHT22;16878;52.542;13.426;2022-08-04T12:27:02;33.90;48.80
30047;DHT22;16878;52.542;13.426;2022-08-04T12:29:33;33.90;48.60
30047;DHT22;16878;52.542;13.426;2022-08-04T12:32:05;33.80;48.90
30047;DHT22;16878;52.542;13.426;2022-08-04T12:34:59;33.70;49.30
30047;DHT22;16878;52.542;13.426;2022-08-04T12:40:13;33.60;49.00
30047;DHT22;16878;52.542;13.426;2022-08-04T12:42:55;33.60;49.20
30047;DHT22;16878;52.542;13.426;2022-08-04T12:45:26;33.70;50.00
30047;DHT22;16878;52.542;13.426;2022-08-04T12:47:56;33.60;49.00
30047;DHT22;16878;52.542;13.426;2022-08-04T12:50:23;33.50;49.00
30047;DHT22;16878;52.542;13.426;2022-08-04T12:52:53;33.40;49.30
30047;DHT22;16878;52.542;13.426;2022-08-04T12:55:21;33.40;49.70
30047;DHT22;16878;52.542;13.426;2022-08-04T12:57:49;33.40;49.10
30047;DHT22;16878;52.542;13.426;2022-08-04T13:00:35;33.40;49.20
30047;DHT22;16878;52.542;13.426;2022-08-04T13:03:05;33.40;49.40
30047;DHT22;16878;52.542;13.426;2022-08-04T13:05:33;33.50;49.40
30047;DHT22;16878;52.542;13.426;2022-08-04T13:08:01;33.60;48.60
30047;DHT22;16878;52.542;13.426;2022-08-04T13:10:29;33.60;48.50
30047;DHT22;16878;52.542;13.426;2022-08-04T13:12:57;33.60;48.80
30047;DHT22;16878;52.542;13.426;2022-08-04T13:15:24;33.60;48.40
30047;DHT22;16878;52.542;13.426;2022-08-04T13:18:00;33.60;48.20
30047;DHT22;16878;52.542;13.426;2022-08-04T13:20:29;33.60;48.00
30047;DHT22;16878;52.542;13.426;2022-08-04T13:23:15;33.60;48.00
30047;DHT22;16878;52.542;13.426;2022-08-04T13:25:50;33.60;47.60
30047;DHT22;16878;52.542;13.426;2022-08-04T13:28:19;33.60;47.70
30047;DHT22;16878;52.542;13.426;2022-08-04T13:30:48;33.60;48.00
30047;DHT22;16878;52.542;13.426;2022-08-04T13:33:17;33.60;48.10
30047;DHT22;16878;52.542;13.426;2022-08-04T13:35:45;33.60;47.90
30047;DHT22;16878;52.542;13.426;2022-08-04T13:38:12;33.50;47.30
30047;DHT22;16878;52.542;13.426;2022-08-04T13:40:40;33.40;47.30
30047;DHT22;16878;52.542;13.426;2022-08-04T13:43:08;33.40;46.90
30047;DHT22;16878;52.542;13.426;2022-08-04T13:45:35;33.40;46.90
30047;DHT22;16878;52.542;13.426;2022-08-04T13:48:02;33.50;46.90
30047;DHT22;16878;52.542;13.426;2022-08-04T13:50:30;33.60;46.80
30047;DHT22;16878;52.542;13.426;2022-08-04T13:53:00;33.70;46.50
30047;DHT22;16878;52.542;13.426;2022-08-04T13:57:56;34.00;45.70
30047;DHT22;16878;52.542;13.426;2022-08-04T14:00:25;34.10;45.50
30047;DHT22;16878;52.542;13.426;2022-08-04T14:03:21;34.10;45.20
30047;DHT22;16878;52.542;13.426;2022-08-04T14:06:06;34.00;45.80
30047;DHT22;16878;52.542;13.426;2022-08-04T14:08:35;33.90;44.90
30047;DHT22;16878;52.542;13.426;2022-08-04T14:11:08;33.80;45.10
30047;DHT22;16878;52.542;13.426;2022-08-04T14:13:34;33.70;45.40
30047;DHT22;16878;52.542;13.426;2022-08-04T14:16:00;33.70;45.50
30047;DHT22;16878;52.542;13.426;2022-08-04T14:18:28;33.60;45.70
30047;DHT22;16878;52.542;13.426;2022-08-04T14:23:28;33.70;45.10
30047;DHT22;16878;52.542;13.426;2022-08-04T14:25:54;33.80;45.20
30047;DHT22;16878;52.542;13.426;2022-08-04T14:28:30;33.80;44.80
30047;DHT22;16878;52.542;13.426;2022-08-04T14:31:16;33.70;44.70
30047;DHT22;16878;52.542;13.426;2022-08-04T14:33:43;33.70;45.10
30047;DHT22;16878;52.542;13.426;2022-08-04T14:36:12;33.70;44.80
30047;DHT22;16878;52.542;13.426;2022-08-04T14:38:53;33.60;44.50
30047;DHT22;16878;52.542;13.426;2022-08-04T14:41:25;33.60;44.70
30047;DHT22;16878;52.542;13.426;2022-08-04T14:43:56;33.60;44.70
30047;DHT22;16878;52.542;13.426;2022-08-04T14:46:23;33.70;44.80
30047;DHT22;16878;52.542;13.426;2022-08-04T14:49:09;33.80;44.70
30047;DHT22;16878;52.542;13.426;2022-08-04T14:51:43;33.80;44.90
30047;DHT22;16878;52.542;13.426;2022-08-04T14:54:12;33.80;45.20
30047;DHT22;16878;52.542;13.426;2022-08-04T14:56:39;33.80;45.00
30047;DHT22;16878;52.542;13.426;2022-08-04T14:59:10;33.70;44.80
30047;DHT22;16878;52.542;13.426;2022-08-04T15:01:39;33.70;45.10
30047;DHT22;16878;52.542;13.426;2022-08-04T15:04:06;33.60;45.30
30047;DHT22;16878;52.542;13.426;2022-08-04T15:06:33;33.70;44.70
30047;DHT22;16878;52.542;13.426;2022-08-04T15:09:03;33.60;44.80
30047;DHT22;16878;52.542;13.426;2022-08-04T15:11:29;33.60;44.60
30047;DHT22;16878;52.542;13.426;2022-08-04T15:13:56;33.70;44.80
30047;DHT22;16878;52.542;13.426;2022-08-04T15:16:23;33.60;44.90
30047;DHT22;16878;52.542;13.426;2022-08-04T15:18:50;33.60;45.10
30047;DHT22;16878;52.542;13.426;2022-08-04T15:21:16;33.50;45.20
30047;DHT22;16878;52.542;13.426;2022-08-04T15:23:42;33.50;45.70
30047;DHT22;16878;52.542;13.426;2022-08-04T15:26:14;33.40;45.90
30047;DHT22;16878;52.542;13.426;2022-08-04T15:28:46;33.20;45.70
30047;DHT22;16878;52.542;13.426;2022-08-04T15:31:15;33.30;45.70
30047;DHT22;16878;52.542;13.426;2022-08-04T15:33:42;33.30;45.40
30047;DHT22;16878;52.542;13.426;2022-08-04T15:36:30;33.40;45.30
30047;DHT22;16878;52.542;13.426;2022-08-04T15:39:16;33.50;45.30
30047;DHT22;16878;52.542;13.426;2022-08-04T15:41:52;33.40;45.50
30047;DHT22;16878;52.542;13.426;2022-08-04T15:47:13;33.30;46.00
30047;DHT22;16878;52.542;13.426;2022-08-04T15:49:39;33.20;45.60
30047;DHT22;16878;52.542;13.426;2022-08-04T15:52:09;33.20;46.10
30047;DHT22;16878;52.542;13.426;2022-08-04T15:54:35;33.10;46.30
30047;DHT22;16878;52.542;13.426;2022-08-04T15:57:02;33.00;46.20
30047;DHT22;16878;52.542;13.426;2022-08-04T15:59:56;32.90;47.30
30047;DHT22;16878;52.542;13.426;2022-08-04T16:13:07;33.00;46.80
30047;DHT22;16878;52.542;13.426;2022-08-04T16:15:50;33.00;46.60
30047;DHT22;16878;52.542;13.426;2022-08-04T16:18:41;32.90;46.90
30047;DHT22;16878;52.542;13.426;2022-08-04T16:21:20;32.80;46.90
30047;DHT22;16878;52.542;13.426;2022-08-04T16:29:03;32.60;47.00
30047;DHT22;16878;52.542;13.426;2022-08-04T16:34:51;32.60;47.20
30047;DHT22;16878;52.542;13.426;2022-08-04T16:37:17;32.60;47.30
30047;DHT22;16878;52.542;13.426;2022-08-04T16:39:44;32.70;47.20
30047;DHT22;16878;52.542;13.426;2022-08-04T16:42:30;32.70;47.60
30047;DHT22;16878;52.542;13.426;2022-08-04T16:45:10;32.70;48.20
30047;DHT22;16878;52.542;13.426;2022-08-04T16:50:15;32.80;48.30
30047;DHT22;16878;52.542;13.426;2022-08-04T16:55:32;32.80;47.50
30047;DHT22;16878;52.542;13.426;2022-08-04T16:57:57;32.80;47.90
30047;DHT22;16878;52.542;13.426;2022-08-04T17:00:35;32.80;47.80
30047;DHT22;16878;52.542;13.426;2022-08-04T17:03:05;32.70;47.70
30047;DHT22;16878;52.542;13.426;2022-08-04T17:05:32;32.60;47.20
30047;DHT22;16878;52.542;13.426;2022-08-04T17:07:58;32.60;47.90
30047;DHT22;16878;52.542;13.426;2022-08-04T17:10:47;32.60;47.30
30047;DHT22;16878;52.542;13.426;2022-08-04T17:15:53;32.60;47.40
30047;DHT22;16878;52.542;13.426;2022-08-04T17:18:26;32.50;47.60
30047;DHT22;16878;52.542;13.426;2022-08-04T17:20:53;32.40;48.50
30047;DHT22;16878;52.542;13.426;2022-08-04T17:23:30;32.50;47.50
30047;DHT22;16878;52.542;13.426;2022-08-04T17:26:17;32.40;47.50
30047;DHT22;16878;52.542;13.426;2022-08-04T17:28:48;32.40;48.50
30047;DHT22;16878;52.542;13.426;2022-08-04T17:31:15;32.30;48.60
30047;DHT22;16878;52.542;13.426;2022-08-04T17:33:46;32.30;48.10
30047;DHT22;16878;52.542;13.426;2022-08-04T17:36:14;32.20;48.00
30047;DHT22;16878;52.542;13.426;2022-08-04T17:38:41;32.20;48.20
30047;DHT22;16878;52.542;13.426;2022-08-04T17:41:10;32.20;48.00
30047;DHT22;16878;52.542;13.426;2022-08-04T17:43:37;32.10;48.30
30047;DHT22;16878;52.542;13.426;2022-08-04T17:54:00;32.00;48.60
30047;DHT22;16878;52.542;13.426;2022-08-04T17:56:40;31.90;48.90
30047;DHT22;16878;52.542;13.426;2022-08-04T18:01:52;31.70;49.30
30047;DHT22;16878;52.542;13.426;2022-08-04T18:06:55;31.60;49.40
30047;DHT22;16878;52.542;13.426;2022-08-04T18:09:33;31.70;49.70
30047;DHT22;16878;52.542;13.426;2022-08-04T18:12:01;31.70;49.30
30047;DHT22;16878;52.542;13.426;2022-08-04T18:14:35;31.70;49.50
30047;DHT22;16878;52.542;13.426;2022-08-04T18:17:01;31.60;50.00
30047;DHT22;16878;52.542;13.426;2022-08-04T18:19:27;31.60;50.00
30047;DHT22;16878;52.542;13.426;2022-08-04T18:21:52;31.50;50.00
30047;DHT22;16878;52.542;13.426;2022-08-04T18:24:18;31.50;50.10
30047;DHT22;16878;52.542;13.426;2022-08-04T18:26:44;31.40;50.60
30047;DHT22;16878;52.542;13.426;2022-08-04T18:29:10;31.30;50.40
30047;DHT22;16878;52.542;13.426;2022-08-04T18:31:36;31.20;50.60
30047;DHT22;16878;52.542;13.426;2022-08-04T18:34:06;31.20;50.90
30047;DHT22;16878;52.542;13.426;2022-08-04T18:36:33;31.20;50.90
30047;DHT22;16878;52.542;13.426;2022-08-04T18:39:00;31.10;51.50
30047;DHT22;16878;52.542;13.426;2022-08-04T18:41:29;31.10;51.30
30047;DHT22;16878;52.542;13.426;2022-08-04T18:43:55;31.00;51.50
30047;DHT22;16878;52.542;13.426;2022-08-04T18:46:21;30.80;51.80
30047;DHT22;16878;52.542;13.426;2022-08-04T18:48:47;30.80;52.10
30047;DHT22;16878;52.542;13.426;2022-08-04T18:51:13;30.80;52.20
30047;DHT22;16878;52.542;13.426;2022-08-04T18:53:39;30.70;52.30
30047;DHT22;16878;52.542;13.426;2022-08-04T18:56:05;30.60;52.90
30047;DHT22;16878;52.542;13.426;2022-08-04T18:58:31;30.60;53.50
30047;DHT22;16878;52.542;13.426;2022-08-04T19:00:56;30.50;53.10
30047;DHT22;16878;52.542;13.426;2022-08-04T19:03:22;30.40;53.80
30047;DHT22;16878;52.542;13.426;2022-08-04T19:05:49;30.30;53.90
30047;DHT22;16878;52.542;13.426;2022-08-04T19:08:14;30.20;54.10
30047;DHT22;16878;52.542;13.426;2022-08-04T19:10:40;30.20;54.60
30047;DHT22;16878;52.542;13.426;2022-08-04T19:13:06;30.10;54.70
30047;DHT22;16878;52.542;13.426;2022-08-04T19:15:32;30.00;55.20
30047;DHT22;16878;52.542;13.426;2022-08-04T19:17:57;30.00;55.60
30047;DHT22;16878;52.542;13.426;2022-08-04T19:20:24;30.00;54.70
30047;DHT22;16878;52.542;13.426;2022-08-04T19:22:50;30.00;55.50
30047;DHT22;16878;52.542;13.426;2022-08-04T19:25:16;29.90;55.90
30047;DHT22;16878;52.542;13.426;2022-08-04T19:27:42;29.80;56.10
30047;DHT22;16878;52.542;13.426;2022-08-04T19:30:08;29.80;56.80
30047;DHT22;16878;52.542;13.426;2022-08-04T19:32:34;29.70;56.70
30047;DHT22;16878;52.542;13.426;2022-08-04T19:34:59;29.60;57.00
30047;DHT22;16878;52.542;13.426;2022-08-04T19:37:25;29.60;57.30
30047;DHT22;16878;52.542;13.426;2022-08-04T19:39:51;29.50;57.60
30047;DHT22;16878;52.542;13.426;2022-08-04T19:42:18;29.50;57.40
30047;DHT22;16878;52.542;13.426;2022-08-04T19:44:43;29.50;57.90
30047;DHT22;16878;52.542;13.426;2022-08-04T19:47:09;29.50;57.40
30047;DHT22;16878;52.542;13.426;2022-08-04T19:49:35;29.40;56.80
30047;DHT22;16878;52.542;13.426;2022-08-04T19:52:01;29.40;57.50
30047;DHT22;16878;52.542;13.426;2022-08-04T19:54:27;29.40;56.70
30047;DHT22;16878;52.542;13.426;2022-08-04T19:56:52;29.40;57.20
30047;DHT22;16878;52.542;13.426;2022-08-04T19:59:18;29.40;56.70